Time;durP1;ratioP1;P1;durP2;ratioP2;P2;SDS_P1;SDS_P2;PMS_P1;PMS_P2;Temp;Humidity;BMP_temperature;BMP_pressure;BME280_temperature;BME280_humidity;BME280_pressure;Samples;Min_cycle;Max_cycle;Signal;HPM_P1;HPM_P2
2021/11/24 00:01:40;;;;;;;69.55;12.75;;;;;;;;;;5070836;28;20220;-65
2021/11/24 00:04:07;;;;;;;72.65;12.95;;;;;;;;;;5070676;28;20215;-64
2021/11/24 00:06:35;;;;;;;72.80;13.20;;;;;;;;;;5070721;28;20619;-65
2021/11/24 00:09:03;;;;;;;69.22;12.48;;;;;;;;;;5074303;28;20220;-65
2021/11/24 00:11:30;;;;;;;75.75;12.95;;;;;;;;;;5074264;28;20236;-65
2021/11/24 00:13:57;;;;;;;74.57;14.68;;;;;;;;;;5074327;28;20229;-64
2021/11/24 00:16:24;;;;;;;73.90;12.45;;;;;;;;;;5073722;28;20208;-65
2021/11/24 00:18:51;;;;;;;70.43;12.95;;;;;;;;;;5074009;28;20205;-65
2021/11/24 00:21:19;;;;;;;73.97;12.38;;;;;;;;;;5072408;28;20712;-65
2021/11/24 00:23:48;;;;;;;69.43;11.98;;;;;;;;;;5073960;28;20677;-65
2021/11/24 00:26:15;;;;;;;70.85;12.00;;;;;;;;;;5073624;28;20680;-65
2021/11/24 00:28:42;;;;;;;70.13;13.30;;;;;;;;;;5074070;28;20201;-66
2021/11/24 00:31:09;;;;;;;72.97;13.60;;;;;;;;;;5073763;28;20229;-65
2021/11/24 00:33:36;;;;;;;83.28;17.45;;;;;;;;;;5073643;28;20369;-64
2021/11/24 00:36:04;;;;;;;88.22;20.60;;;;;;;;;;5073437;28;20207;-64
2021/11/24 00:38:31;;;;;;;77.35;17.20;;;;;;;;;;5073598;28;20205;-65
2021/11/24 00:41:00;;;;;;;77.30;14.00;;;;;;;;;;5073592;28;20211;-65
2021/11/24 00:43:27;;;;;;;83.82;16.70;;;;;;;;;;5073472;28;20209;-65
2021/11/24 00:45:54;;;;;;;83.32;19.48;;;;;;;;;;5073140;28;20234;-65
2021/11/24 00:48:21;;;;;;;85.90;18.75;;;;;;;;;;5073617;28;20200;-65
2021/11/24 00:50:49;;;;;;;89.00;19.35;;;;;;;;;;5073426;28;20205;-65
2021/11/24 00:53:16;;;;;;;90.15;19.00;;;;;;;;;;5071642;28;20693;-64
2021/11/24 00:55:43;;;;;;;85.63;18.38;;;;;;;;;;5073286;28;20211;-65
2021/11/24 00:58:12;;;;;;;76.65;14.45;;;;;;;;;;5073300;28;20224;-64
2021/11/24 01:00:39;;;;;;;77.95;13.75;;;;;;;;;;5073131;28;20209;-65
2021/11/24 01:03:06;;;;;;;76.63;13.95;;;;;;;;;;5073357;28;20223;-65
2021/11/24 01:05:33;;;;;;;74.30;13.70;;;;;;;;;;5073122;28;20205;-65
2021/11/24 01:08:00;;;;;;;74.45;13.20;;;;;;;;;;5073306;28;20234;-65
2021/11/24 01:10:28;;;;;;;87.43;13.65;;;;;;;;;;5073105;28;20211;-65
2021/11/24 01:12:55;;;;;;;75.32;11.95;;;;;;;;;;5072763;28;20225;-64
2021/11/24 01:15:24;;;;;;;73.57;13.00;;;;;;;;;;5073044;28;20212;-62
2021/11/24 01:17:52;;;;;;;67.88;11.40;;;;;;;;;;5072950;28;20211;-64
2021/11/24 01:20:20;;;;;;;72.43;11.77;;;;;;;;;;5073132;28;20201;-66
2021/11/24 01:22:47;;;;;;;70.10;10.32;;;;;;;;;;5072912;28;20247;-65
2021/11/24 01:25:14;;;;;;;72.32;10.65;;;;;;;;;;5070731;28;20212;-64
2021/11/24 01:27:42;;;;;;;72.38;12.30;;;;;;;;;;5072343;28;20211;-66
2021/11/24 01:30:10;;;;;;;68.50;10.27;;;;;;;;;;5072765;28;20334;-64
2021/11/24 01:32:38;;;;;;;70.35;11.10;;;;;;;;;;5072745;28;20395;-65
2021/11/24 01:35:06;;;;;;;69.00;10.65;;;;;;;;;;5072464;28;20205;-63
2021/11/24 01:37:34;;;;;;;70.22;11.93;;;;;;;;;;5072393;28;20213;-65
2021/11/24 01:40:01;;;;;;;71.72;11.73;;;;;;;;;;5072445;28;20209;-65
2021/11/24 01:42:29;;;;;;;76.95;12.00;;;;;;;;;;5072362;28;20669;-65
2021/11/24 01:44:56;;;;;;;70.35;11.82;;;;;;;;;;5072378;28;20673;-65
2021/11/24 01:47:23;;;;;;;70.53;12.20;;;;;;;;;;5072183;28;20232;-65
2021/11/24 01:49:51;;;;;;;69.10;10.68;;;;;;;;;;5072336;28;20212;-64
2021/11/24 01:52:18;;;;;;;68.40;10.52;;;;;;;;;;5072677;28;20225;-64
2021/11/24 01:54:45;;;;;;;69.82;10.32;;;;;;;;;;5072004;28;20224;-65
2021/11/24 01:57:13;;;;;;;68.90;11.32;;;;;;;;;;5070118;28;20201;-65
2021/11/24 01:59:40;;;;;;;71.00;11.45;;;;;;;;;;5072318;28;20209;-64
2021/11/24 02:02:07;;;;;;;74.70;13.38;;;;;;;;;;5072138;28;20601;-64
2021/11/24 02:04:34;;;;;;;70.28;11.40;;;;;;;;;;5072104;28;20207;-64
2021/11/24 02:07:02;;;;;;;68.75;12.13;;;;;;;;;;5071618;28;20205;-64
2021/11/24 02:09:29;;;;;;;71.75;11.85;;;;;;;;;;5071894;28;20205;-64
2021/11/24 02:11:57;;;;;;;67.78;10.20;;;;;;;;;;5072310;28;20229;-65
2021/11/24 02:14:26;;;;;;;68.20;10.18;;;;;;;;;;5071673;28;20724;-64
2021/11/24 02:16:54;;;;;;;70.32;9.77;;;;;;;;;;5071513;28;20299;-64
2021/11/24 02:19:21;;;;;;;72.07;10.80;;;;;;;;;;5071855;28;20582;-64
2021/11/24 02:21:50;;;;;;;69.85;11.50;;;;;;;;;;5071560;28;20220;-64
2021/11/24 02:24:18;;;;;;;69.60;11.50;;;;;;;;;;5071888;28;20207;-65
2021/11/24 02:26:45;;;;;;;74.63;11.40;;;;;;;;;;5071385;28;20201;-65
2021/11/24 02:29:12;;;;;;;66.53;10.10;;;;;;;;;;5069695;28;20591;-65
2021/11/24 02:31:40;;;;;;;69.68;11.02;;;;;;;;;;5071625;28;20227;-64
2021/11/24 02:34:07;;;;;;;72.28;11.43;;;;;;;;;;5071522;28;20221;-64
2021/11/24 02:36:34;;;;;;;68.60;10.93;;;;;;;;;;5071201;28;20703;-64
2021/11/24 02:39:04;;;;;;;69.38;10.70;;;;;;;;;;5072010;28;20291;-65
2021/11/24 02:41:31;;;;;;;67.45;10.15;;;;;;;;;;5071470;28;20319;-64
2021/11/24 02:43:58;;;;;;;68.18;10.35;;;;;;;;;;5071545;28;20228;-65
2021/11/24 02:46:26;;;;;;;68.93;11.38;;;;;;;;;;5071186;28;20208;-65
2021/11/24 02:48:53;;;;;;;69.25;11.15;;;;;;;;;;5068858;28;20201;-65
2021/11/24 02:51:20;;;;;;;68.10;10.80;;;;;;;;;;5071349;28;20713;-65
2021/11/24 02:53:47;;;;;;;68.43;10.93;;;;;;;;;;5071428;28;20240;-64
2021/11/24 02:56:16;;;;;;;67.30;10.18;;;;;;;;;;5071130;28;20205;-65
2021/11/24 02:58:43;;;;;;;70.30;10.40;;;;;;;;;;5071238;28;20209;-65
2021/11/24 03:01:10;;;;;;;67.03;10.30;;;;;;;;;;5066122;28;20549;-65
2021/11/24 03:03:37;;;;;;;64.50;9.40;;;;;;;;;;5051511;28;20208;-65
2021/11/24 03:06:04;;;;;;;69.85;10.43;;;;;;;;;;5050855;28;20674;-65
2021/11/24 03:08:31;;;;;;;69.10;10.40;;;;;;;;;;5051428;28;20206;-65
2021/11/24 03:10:58;;;;;;;68.32;10.40;;;;;;;;;;5051156;28;20209;-65
2021/11/24 03:13:27;;;;;;;75.07;11.82;;;;;;;;;;5050990;28;20713;-65
2021/11/24 03:15:54;;;;;;;66.70;9.82;;;;;;;;;;5051131;28;20206;-63
2021/11/24 03:18:21;;;;;;;71.18;10.63;;;;;;;;;;5051399;28;20209;-65
2021/11/24 03:20:48;;;;;;;67.68;10.40;;;;;;;;;;5051125;28;20214;-64
2021/11/24 03:23:15;;;;;;;75.07;11.80;;;;;;;;;;5051218;28;20208;-66
2021/11/24 03:25:42;;;;;;;68.28;11.75;;;;;;;;;;5050736;28;20206;-65
2021/11/24 03:28:10;;;;;;;69.47;11.48;;;;;;;;;;5051293;28;20213;-65
2021/11/24 03:30:39;;;;;;;72.85;12.60;;;;;;;;;;5051283;28;20216;-65
2021/11/24 03:33:07;;;;;;;74.93;14.27;;;;;;;;;;5049629;28;20236;-65
2021/11/24 03:35:35;;;;;;;68.88;11.88;;;;;;;;;;5050154;28;20213;-65
2021/11/24 03:38:03;;;;;;;72.50;12.07;;;;;;;;;;5051217;28;20208;-65
2021/11/24 03:40:32;;;;;;;80.78;11.30;;;;;;;;;;5050874;28;20205;-65
2021/11/24 03:42:59;;;;;;;72.38;12.57;;;;;;;;;;5053675;28;20245;-65
2021/11/24 03:45:28;;;;;;;70.20;11.70;;;;;;;;;;5054686;28;20197;-64
2021/11/24 03:47:57;;;;;;;70.88;12.73;;;;;;;;;;5054714;28;20765;-65
2021/11/24 03:50:24;;;;;;;71.30;11.48;;;;;;;;;;5054692;28;20210;-65
2021/11/24 03:52:51;;;;;;;70.05;11.43;;;;;;;;;;5054594;28;20236;-64
2021/11/24 03:55:18;;;;;;;69.63;10.85;;;;;;;;;;5054416;28;20230;-65
2021/11/24 03:57:46;;;;;;;70.90;11.25;;;;;;;;;;5054572;28;20215;-64
2021/11/24 04:00:15;;;;;;;72.88;12.65;;;;;;;;;;5054697;28;20208;-64
2021/11/24 04:02:42;;;;;;;77.03;11.13;;;;;;;;;;5054521;28;20228;-65
2021/11/24 04:05:12;;;;;;;70.45;11.23;;;;;;;;;;5054343;28;20602;-64
2021/11/24 04:07:39;;;;;;;74.47;11.77;;;;;;;;;;5054489;28;20221;-65
2021/11/24 04:10:07;;;;;;;67.75;10.85;;;;;;;;;;5054339;28;20212;-65
2021/11/24 04:12:35;;;;;;;75.03;11.65;;;;;;;;;;5054408;28;20225;-65
2021/11/24 04:15:02;;;;;;;69.13;11.18;;;;;;;;;;5054138;28;20236;-65
2021/11/24 04:17:29;;;;;;;67.25;9.65;;;;;;;;;;5053965;28;20209;-66
2021/11/24 04:19:56;;;;;;;69.10;10.68;;;;;;;;;;5054094;28;20205;-66
2021/11/24 04:22:25;;;;;;;66.55;10.70;;;;;;;;;;5054272;28;20228;-65
2021/11/24 04:24:52;;;;;;;74.65;11.25;;;;;;;;;;5054301;28;20721;-66
2021/11/24 04:27:19;;;;;;;68.35;10.77;;;;;;;;;;5053837;28;20228;-65
2021/11/24 04:29:46;;;;;;;80.18;12.75;;;;;;;;;;5053932;28;20217;-65
2021/11/24 04:32:16;;;;;;;71.78;11.40;;;;;;;;;;5053933;28;20228;-65
2021/11/24 04:34:43;;;;;;;73.82;11.15;;;;;;;;;;5053512;28;20632;-65
2021/11/24 04:37:10;;;;;;;67.35;9.13;;;;;;;;;;5053831;28;20255;-65
2021/11/24 04:39:39;;;;;;;68.97;11.38;;;;;;;;;;5054025;28;20678;-66
2021/11/24 04:42:06;;;;;;;71.05;10.85;;;;;;;;;;5053684;28;20233;-66
2021/11/24 04:44:33;;;;;;;67.60;11.55;;;;;;;;;;5053954;28;20300;-66
2021/11/24 04:47:00;;;;;;;67.60;10.00;;;;;;;;;;5053199;28;20674;-64
2021/11/24 04:49:27;;;;;;;70.25;11.30;;;;;;;;;;5053843;28;20208;-65
2021/11/24 04:51:55;;;;;;;71.90;11.25;;;;;;;;;;5053470;28;20232;-64
2021/11/24 04:54:22;;;;;;;76.95;11.27;;;;;;;;;;5053166;28;20247;-66
2021/11/24 04:56:50;;;;;;;69.22;10.95;;;;;;;;;;5053109;28;20207;-65
2021/11/24 04:59:17;;;;;;;66.90;10.07;;;;;;;;;;5053438;28;20212;-65
2021/11/24 05:01:44;;;;;;;67.25;9.40;;;;;;;;;;5053240;28;20251;-65
2021/11/24 05:04:12;;;;;;;67.07;10.93;;;;;;;;;;5053404;28;20202;-65
2021/11/24 05:06:39;;;;;;;68.47;10.60;;;;;;;;;;5053169;28;20209;-66
2021/11/24 05:09:06;;;;;;;66.55;10.00;;;;;;;;;;5053341;28;20208;-66
2021/11/24 05:11:35;;;;;;;68.07;10.65;;;;;;;;;;5053250;28;20232;-65
2021/11/24 05:14:05;;;;;;;66.88;9.77;;;;;;;;;;5052936;28;20224;-66
2021/11/24 05:16:33;;;;;;;70.22;10.52;;;;;;;;;;5053266;28;20566;-66
2021/11/24 05:19:01;;;;;;;68.30;11.32;;;;;;;;;;5053180;28;20232;-65
2021/11/24 05:21:31;;;;;;;67.57;9.68;;;;;;;;;;5052914;28;20693;-65
2021/11/24 05:23:58;;;;;;;67.60;10.60;;;;;;;;;;5053061;28;20559;-65
2021/11/24 05:26:26;;;;;;;66.57;9.90;;;;;;;;;;5052644;28;20300;-64
2021/11/24 05:28:53;;;;;;;67.60;10.10;;;;;;;;;;5052839;28;20212;-66
2021/11/24 05:31:22;;;;;;;70.68;10.77;;;;;;;;;;5052704;28;20604;-65
2021/11/24 05:33:49;;;;;;;70.95;10.93;;;;;;;;;;5052801;28;20216;-66
2021/11/24 05:36:17;;;;;;;68.07;10.13;;;;;;;;;;5052282;28;20206;-65
2021/11/24 05:38:46;;;;;;;69.18;11.30;;;;;;;;;;5052796;28;20247;-65
2021/11/24 05:41:13;;;;;;;67.05;10.30;;;;;;;;;;5052434;28;20221;-66
2021/11/24 05:43:40;;;;;;;70.22;10.48;;;;;;;;;;5052796;28;20213;-66
2021/11/24 05:46:13;;;;;;;68.20;9.60;;;;;;;;;;5052362;28;20198;-65
2021/11/24 05:48:42;;;;;;;71.15;10.20;;;;;;;;;;5052606;28;20259;-64
2021/11/24 05:51:09;;;;;;;69.30;10.75;;;;;;;;;;5052901;28;20597;-66
2021/11/24 05:53:37;;;;;;;74.50;15.60;;;;;;;;;;5052394;28;20210;-65
2021/11/24 05:56:04;;;;;;;106.15;30.02;;;;;;;;;;5051858;28;20225;-66
2021/11/24 05:58:31;;;;;;;90.07;22.77;;;;;;;;;;5052264;28;20642;-65
2021/11/24 06:00:58;;;;;;;94.88;24.35;;;;;;;;;;5052392;28;20209;-65
2021/11/24 06:03:25;;;;;;;80.90;16.33;;;;;;;;;;5052202;28;20216;-66
2021/11/24 06:05:54;;;;;;;72.57;13.43;;;;;;;;;;5051115;28;20252;-65
2021/11/24 06:08:21;;;;;;;70.65;11.73;;;;;;;;;;5051981;28;20209;-65
2021/11/24 06:10:50;;;;;;;70.80;11.27;;;;;;;;;;5052208;28;20202;-65
2021/11/24 06:13:17;;;;;;;70.78;10.50;;;;;;;;;;5052237;28;20216;-64
2021/11/24 06:15:45;;;;;;;68.95;11.90;;;;;;;;;;5051650;28;20232;-65
2021/11/24 06:18:12;;;;;;;71.47;11.43;;;;;;;;;;5051936;28;20667;-65
2021/11/24 06:20:40;;;;;;;66.55;10.27;;;;;;;;;;5051915;28;20209;-65
2021/11/24 06:23:09;;;;;;;72.97;11.82;;;;;;;;;;5052033;28;20681;-66
2021/11/24 06:25:36;;;;;;;74.47;12.10;;;;;;;;;;5051764;28;20205;-65
2021/11/24 06:28:04;;;;;;;71.60;11.02;;;;;;;;;;5051486;28;20212;-65
2021/11/24 06:30:31;;;;;;;68.75;12.05;;;;;;;;;;5051794;28;20296;-65
2021/11/24 06:32:58;;;;;;;73.65;11.13;;;;;;;;;;5051540;28;20225;-65
2021/11/24 06:35:25;;;;;;;75.10;14.15;;;;;;;;;;5051787;28;20588;-64
2021/11/24 06:37:52;;;;;;;66.45;10.27;;;;;;;;;;5051921;28;20205;-65
2021/11/24 06:40:21;;;;;;;69.75;11.75;;;;;;;;;;5051694;28;20491;-66
2021/11/24 06:42:48;;;;;;;70.35;10.90;;;;;;;;;;5051579;28;20243;-65
2021/11/24 06:45:15;;;;;;;67.47;9.88;;;;;;;;;;5052031;28;20229;-65
2021/11/24 06:47:43;;;;;;;69.63;10.55;;;;;;;;;;5051402;28;20575;-65
2021/11/24 06:50:11;;;;;;;69.03;10.93;;;;;;;;;;5051797;28;20586;-65
2021/11/24 06:52:38;;;;;;;68.30;11.30;;;;;;;;;;5051667;28;20317;-66
2021/11/24 06:55:05;;;;;;;73.55;13.02;;;;;;;;;;5051415;28;20225;-66
2021/11/24 06:57:34;;;;;;;69.20;11.88;;;;;;;;;;5051577;28;20685;-65
2021/11/24 07:00:01;;;;;;;67.28;10.85;;;;;;;;;;5051561;28;20205;-65
2021/11/24 07:02:28;;;;;;;70.78;12.57;;;;;;;;;;5051850;28;20230;-65
2021/11/24 07:04:55;;;;;;;72.60;12.20;;;;;;;;;;5051631;28;20204;-66
2021/11/24 07:07:22;;;;;;;68.32;11.35;;;;;;;;;;5051200;28;20481;-65
2021/11/24 07:09:49;;;;;;;69.60;11.38;;;;;;;;;;5051603;28;20280;-66
2021/11/24 07:12:18;;;;;;;74.97;15.95;;;;;;;;;;5051392;28;20248;-66
2021/11/24 07:14:47;;;;;;;71.78;14.93;;;;;;;;;;5051264;28;20749;-66
2021/11/24 07:17:14;;;;;;;77.75;13.95;;;;;;;;;;5054310;28;20206;-65
2021/11/24 07:19:41;;;;;;;68.60;12.60;;;;;;;;;;5055662;28;20206;-64
2021/11/24 07:22:08;;;;;;;71.25;12.93;;;;;;;;;;5055340;28;20229;-66
2021/11/24 07:24:35;;;;;;;75.18;14.15;;;;;;;;;;5055453;28;20201;-65
2021/11/24 07:27:02;;;;;;;74.38;13.77;;;;;;;;;;5054970;28;20212;-66
2021/11/24 07:29:29;;;;;;;72.28;12.73;;;;;;;;;;5055206;28;20209;-65
2021/11/24 07:31:58;;;;;;;74.80;15.73;;;;;;;;;;5054875;28;20230;-66
2021/11/24 07:34:25;;;;;;;74.60;12.48;;;;;;;;;;5055326;28;20589;-66
2021/11/24 07:36:52;;;;;;;73.07;12.80;;;;;;;;;;5054654;28;20216;-66
2021/11/24 07:39:20;;;;;;;74.28;12.15;;;;;;;;;;5055027;28;20446;-65
2021/11/24 07:41:47;;;;;;;70.45;12.18;;;;;;;;;;5054766;28;20234;-66
2021/11/24 07:44:14;;;;;;;71.35;11.20;;;;;;;;;;5054719;28;20696;-65
2021/11/24 07:46:41;;;;;;;72.35;10.68;;;;;;;;;;5054693;28;20666;-65
2021/11/24 07:49:09;;;;;;;75.90;12.27;;;;;;;;;;5054746;28;20216;-65
2021/11/24 07:51:37;;;;;;;71.45;12.18;;;;;;;;;;5054711;28;20229;-65
2021/11/24 07:54:04;;;;;;;74.07;12.85;;;;;;;;;;5054737;28;20205;-65
2021/11/24 07:56:31;;;;;;;75.63;12.73;;;;;;;;;;5054160;28;20225;-66
2021/11/24 07:58:58;;;;;;;72.07;13.60;;;;;;;;;;5054463;28;20206;-65
2021/11/24 08:01:25;;;;;;;74.07;12.98;;;;;;;;;;5054577;28;20235;-66
2021/11/24 08:03:52;;;;;;;73.88;12.60;;;;;;;;;;5054696;28;20232;-66
2021/11/24 08:06:21;;;;;;;77.32;13.32;;;;;;;;;;5054310;28;20206;-66
2021/11/24 08:08:48;;;;;;;75.93;12.55;;;;;;;;;;5054491;28;20205;-66
2021/11/24 08:11:15;;;;;;;73.80;12.20;;;;;;;;;;5054311;28;20226;-65
2021/11/24 08:13:42;;;;;;;72.75;12.77;;;;;;;;;;5054600;28;20205;-67
2021/11/24 08:16:09;;;;;;;75.82;14.93;;;;;;;;;;5054098;28;20233;-65
2021/11/24 08:18:36;;;;;;;108.32;18.20;;;;;;;;;;5054345;28;20205;-65
2021/11/24 08:21:03;;;;;;;83.60;17.67;;;;;;;;;;5054194;28;20556;-66
2021/11/24 08:23:32;;;;;;;79.75;15.50;;;;;;;;;;5054204;28;20216;-65
2021/11/24 08:25:59;;;;;;;71.90;13.13;;;;;;;;;;5053740;28;20198;-65
2021/11/24 08:28:26;;;;;;;78.18;16.27;;;;;;;;;;5053456;28;20205;-66
2021/11/24 08:30:53;;;;;;;75.97;14.70;;;;;;;;;;5054208;28;20205;-66
2021/11/24 08:33:21;;;;;;;77.57;14.57;;;;;;;;;;5054175;28;20608;-66
2021/11/24 08:35:48;;;;;;;74.82;13.95;;;;;;;;;;5053653;28;20225;-66
2021/11/24 08:38:15;;;;;;;76.57;15.30;;;;;;;;;;5053891;28;20202;-65
2021/11/24 08:40:44;;;;;;;82.80;15.93;;;;;;;;;;5054132;28;20201;-66
2021/11/24 08:43:11;;;;;;;77.20;14.40;;;;;;;;;;5053644;28;20237;-66
2021/11/24 08:45:38;;;;;;;81.57;14.63;;;;;;;;;;5053616;28;20578;-66
2021/11/24 08:48:06;;;;;;;74.63;13.25;;;;;;;;;;5053867;28;20205;-66
2021/11/24 08:50:34;;;;;;;79.20;14.90;;;;;;;;;;5053801;28;20841;-66
2021/11/24 08:53:01;;;;;;;77.28;15.15;;;;;;;;;;5053547;28;20229;-67
2021/11/24 08:55:28;;;;;;;80.57;18.55;;;;;;;;;;5053374;28;20252;-66
2021/11/24 08:57:57;;;;;;;67.43;9.77;;;;;;;;;;5052548;28;20209;-65
2021/11/24 09:00:25;;;;;;;81.78;18.13;;;;;;;;;;5064615;28;20205;-66
2021/11/24 09:02:52;;;;;;;94.50;22.15;;;;;;;;;;5073393;28;20740;-66
2021/11/24 09:05:19;;;;;;;83.20;20.20;;;;;;;;;;5070885;28;20201;-64
2021/11/24 09:07:49;;;;;;;77.00;15.00;;;;;;;;;;5073051;28;20215;-66
2021/11/24 09:10:17;;;;;;;99.20;16.33;;;;;;;;;;5073297;28;20205;-66
2021/11/24 09:12:44;;;;;;;78.07;15.13;;;;;;;;;;5073129;28;20228;-64
2021/11/24 09:15:12;;;;;;;78.22;15.55;;;;;;;;;;5072926;28;20205;-66
2021/11/24 09:17:39;;;;;;;78.57;13.55;;;;;;;;;;5072997;28;20208;-66
2021/11/24 09:20:07;;;;;;;74.72;12.98;;;;;;;;;;5072934;28;20586;-66
2021/11/24 09:22:34;;;;;;;76.60;14.25;;;;;;;;;;5073181;28;20225;-66
2021/11/24 09:25:01;;;;;;;74.28;13.55;;;;;;;;;;5072995;28;20248;-66
2021/11/24 09:27:33;;;;;;;75.68;14.25;;;;;;;;;;5072479;28;20209;-66
2021/11/24 09:30:01;;;;;;;75.50;14.38;;;;;;;;;;5072803;28;20212;-65
2021/11/24 09:32:30;;;;;;;74.90;13.52;;;;;;;;;;5072578;28;20232;-65
2021/11/24 09:34:59;;;;;;;78.15;14.02;;;;;;;;;;5072812;28;20216;-66
2021/11/24 09:37:26;;;;;;;76.55;14.90;;;;;;;;;;5070577;28;20233;-66
2021/11/24 09:39:53;;;;;;;73.18;12.27;;;;;;;;;;5072677;28;20591;-66
2021/11/24 09:42:22;;;;;;;75.95;12.85;;;;;;;;;;5072510;28;20652;-66
2021/11/24 09:44:49;;;;;;;78.00;14.52;;;;;;;;;;5072476;28;20205;-65
2021/11/24 09:47:17;;;;;;;75.63;13.18;;;;;;;;;;5072056;28;20200;-66
2021/11/24 09:49:47;;;;;;;74.75;12.38;;;;;;;;;;5072625;28;20205;-66
2021/11/24 09:52:14;;;;;;;78.13;13.30;;;;;;;;;;5072506;28;20659;-65
2021/11/24 09:54:42;;;;;;;78.10;13.52;;;;;;;;;;5072372;28;20211;-65
2021/11/24 09:57:09;;;;;;;77.15;13.77;;;;;;;;;;5071869;28;20744;-65
2021/11/24 09:59:36;;;;;;;76.75;13.82;;;;;;;;;;5072068;28;20677;-66
2021/11/24 10:02:05;;;;;;;75.55;13.63;;;;;;;;;;5072274;28;20231;-65
2021/11/24 10:04:33;;;;;;;75.55;12.77;;;;;;;;;;5072307;28;20212;-65
2021/11/24 10:07:01;;;;;;;72.65;12.82;;;;;;;;;;5069972;28;20688;-66
2021/11/24 10:09:28;;;;;;;72.78;13.02;;;;;;;;;;5072154;28;20205;-65
2021/11/24 10:11:56;;;;;;;76.28;14.40;;;;;;;;;;5071870;28;20235;-64
2021/11/24 10:14:23;;;;;;;74.13;13.43;;;;;;;;;;5071845;28;20209;-65
2021/11/24 10:16:50;;;;;;;72.13;12.93;;;;;;;;;;5071687;28;20247;-65
2021/11/24 10:19:17;;;;;;;74.20;13.77;;;;;;;;;;5072105;28;20212;-65
2021/11/24 10:21:55;;;;;;;75.30;13.50;;;;;;;;;;5072550;28;20609;-65
2021/11/24 10:24:29;;;;;;;79.40;15.50;;;;;;;;;;5072398;28;20207;-65
2021/11/24 10:26:56;;;;;;;76.85;13.98;;;;;;;;;;5072113;28;20952;-65
2021/11/24 10:29:23;;;;;;;74.88;13.85;;;;;;;;;;5072648;28;20207;-65
2021/11/24 10:31:53;;;;;;;75.53;13.70;;;;;;;;;;5072506;28;20236;-65
2021/11/24 10:34:21;;;;;;;82.15;13.00;;;;;;;;;;5072600;28;20201;-65
2021/11/24 10:36:56;;;;;;;68.72;10.02;;;;;;;;;;5071945;28;20226;-65
2021/11/24 10:39:24;;;;;;;71.65;11.35;;;;;;;;;;5059258;28;20269;-65
2021/11/24 10:41:52;;;;;;;71.87;11.80;;;;;;;;;;5052305;28;20241;-66
2021/11/24 10:44:27;;;;;;;69.82;11.32;;;;;;;;;;5052347;28;20502;-66
2021/11/24 10:46:55;;;;;;;72.10;11.10;;;;;;;;;;5051826;28;20514;-66
2021/11/24 10:49:30;;;;;;;71.67;11.90;;;;;;;;;;5052150;28;20450;-66
2021/11/24 10:51:58;;;;;;;68.77;10.43;;;;;;;;;;5051667;28;20830;-65
2021/11/24 10:54:25;;;;;;;72.57;11.47;;;;;;;;;;5052120;28;20450;-64
2021/11/24 10:57:16;;;;;;;69.20;10.63;;;;;;;;;;5051461;28;20494;-66
2021/11/24 10:59:45;;;;;;;70.07;10.67;;;;;;;;;;5041517;28;20458;-65
2021/11/24 11:02:30;;;;;;;71.20;11.50;;;;;;;;;;5052025;28;20467;-65
2021/11/24 11:05:02;;;;;;;69.07;10.43;;;;;;;;;;5052069;28;20538;-65
2021/11/24 11:07:30;;;;;;;71.37;11.87;;;;;;;;;;5051805;28;20561;-66
2021/11/24 11:10:01;;;;;;;69.60;11.20;;;;;;;;;;5050549;28;20451;-66
2021/11/24 11:12:29;;;;;;;69.23;10.87;;;;;;;;;;5051771;28;20546;-66
2021/11/24 11:15:11;;;;;;;72.63;12.03;;;;;;;;;;5052284;28;20458;-64
2021/11/24 11:17:48;;;;;;;68.83;11.40;;;;;;;;;;5051043;28;20484;-65
2021/11/24 11:20:15;;;;;;;68.43;11.10;;;;;;;;;;5051193;28;20448;-66
2021/11/24 11:22:42;;;;;;;66.40;10.20;;;;;;;;;;5051231;28;20468;-65
2021/11/24 11:25:09;;;;;;;67.97;10.50;;;;;;;;;;5050926;28;20440;-64
2021/11/24 11:27:37;;;;;;;66.40;10.10;;;;;;;;;;5050994;28;20455;-65
2021/11/24 11:30:06;;;;;;;68.70;9.53;;;;;;;;;;5051230;28;20440;-64
2021/11/24 11:32:33;;;;;;;69.57;10.37;;;;;;;;;;5051091;28;20467;-64
2021/11/24 11:35:00;;;;;;;65.90;9.47;;;;;;;;;;5051150;28;20440;-64
2021/11/24 11:37:27;;;;;;;67.77;10.30;;;;;;;;;;5050557;28;20487;-65
2021/11/24 11:39:54;;;;;;;73.30;10.70;;;;;;;;;;5051214;28;20471;-64
2021/11/24 11:42:21;;;;;;;66.87;10.07;;;;;;;;;;5058705;28;20474;-65
2021/11/24 11:44:48;;;;;;;70.23;11.23;;;;;;;;;;5071114;28;20466;-65
2021/11/24 11:47:17;;;;;;;71.43;10.73;;;;;;;;;;5070768;28;20443;-65
2021/11/24 11:49:44;;;;;;;67.47;10.10;;;;;;;;;;5071025;28;20735;-65
2021/11/24 11:52:12;;;;;;;70.27;11.67;;;;;;;;;;5070675;28;20471;-65
2021/11/24 11:54:39;;;;;;;68.70;11.03;;;;;;;;;;5071033;28;20446;-65
2021/11/24 11:57:16;;;;;;;67.60;9.80;;;;;;;;;;5070595;28;20491;-65
2021/11/24 11:59:43;;;;;;;68.07;10.00;;;;;;;;;;5071003;28;20451;-65
2021/11/24 12:02:12;;;;;;;67.07;9.77;;;;;;;;;;5070780;28;20466;-65
2021/11/24 12:04:46;;;;;;;67.27;10.13;;;;;;;;;;5074192;28;20800;-64
2021/11/24 12:07:16;;;;;;;67.17;9.97;;;;;;;;;;5074201;28;20970;-65
2021/11/24 12:09:53;;;;;;;67.63;10.80;;;;;;;;;;5074582;28;20832;-64
2021/11/24 12:12:30;;;;;;;68.83;10.17;;;;;;;;;;5074017;28;20471;-65
2021/11/24 12:15:00;;;;;;;68.30;9.77;;;;;;;;;;5073774;28;20529;-65
2021/11/24 12:17:41;;;;;;;68.53;10.37;;;;;;;;;;5074286;28;20478;-65
2021/11/24 12:20:30;;;;;;;66.97;9.90;;;;;;;;;;5074384;28;20458;-65
2021/11/24 12:22:59;;;;;;;67.30;9.93;;;;;;;;;;5074029;28;20469;-65
2021/11/24 12:25:47;;;;;;;66.90;9.83;;;;;;;;;;5073765;28;20931;-65
2021/11/24 12:28:16;;;;;;;67.60;10.27;;;;;;;;;;5069396;28;20816;-65
2021/11/24 12:31:07;;;;;;;66.00;9.37;;;;;;;;;;5074227;28;20447;-65
2021/11/24 12:33:58;;;;;;;67.70;9.80;;;;;;;;;;5073961;28;20504;-65
2021/11/24 12:36:29;;;;;;;69.23;10.57;;;;;;;;;;5073695;28;20487;-64
2021/11/24 12:39:01;;;;;;;68.37;11.20;;;;;;;;;;5074162;28;20456;-65
2021/11/24 12:41:29;;;;;;;68.80;10.80;;;;;;;;;;5073786;28;20486;-65
2021/11/24 12:43:57;;;;;;;67.50;10.93;;;;;;;;;;5073792;28;20449;-65
2021/11/24 12:46:25;;;;;;;68.07;10.67;;;;;;;;;;5073267;28;20440;-65
2021/11/24 12:48:54;;;;;;;69.17;11.00;;;;;;;;;;5073890;28;20470;-65
2021/11/24 12:51:27;;;;;;;69.00;11.53;;;;;;;;;;5073725;28;20477;-65
2021/11/24 12:54:02;;;;;;;66.90;10.67;;;;;;;;;;5073689;28;20472;-65
2021/11/24 12:56:30;;;;;;;69.73;11.37;;;;;;;;;;5073201;28;20661;-65
2021/11/24 12:59:01;;;;;;;69.13;9.17;;;;;;;;;;5073857;28;20550;-65
2021/11/24 13:01:31;;;;;;;69.97;11.90;;;;;;;;;;5073562;28;20463;-66
2021/11/24 13:04:02;;;;;;;67.30;11.40;;;;;;;;;;5073569;28;20451;-65
2021/11/24 13:06:30;;;;;;;71.97;11.60;;;;;;;;;;5073097;28;20451;-65
2021/11/24 13:09:02;;;;;;;69.23;10.73;;;;;;;;;;5073361;28;20448;-64
2021/11/24 13:11:29;;;;;;;68.90;10.33;;;;;;;;;;5073202;28;20467;-66
2021/11/24 13:13:57;;;;;;;71.43;12.47;;;;;;;;;;5073050;28;20451;-65
2021/11/24 13:16:24;;;;;;;69.97;10.93;;;;;;;;;;5072879;28;20524;-65
2021/11/24 13:18:52;;;;;;;70.93;11.60;;;;;;;;;;5073271;28;20443;-65
2021/11/24 13:21:19;;;;;;;68.70;11.83;;;;;;;;;;5072934;28;20493;-65
2021/11/24 13:23:46;;;;;;;70.10;11.27;;;;;;;;;;5072994;28;20459;-65
2021/11/24 13:26:14;;;;;;;69.90;11.00;;;;;;;;;;5072582;28;20527;-64
2021/11/24 13:28:41;;;;;;;70.57;10.97;;;;;;;;;;5072736;28;20455;-65
2021/11/24 13:31:09;;;;;;;69.30;11.40;;;;;;;;;;5072951;28;20820;-65
2021/11/24 13:33:39;;;;;;;68.07;10.67;;;;;;;;;;5072897;28;20448;-65
2021/11/24 13:36:10;;;;;;;73.87;11.67;;;;;;;;;;5072136;28;20931;-64
2021/11/24 13:38:37;;;;;;;70.00;11.90;;;;;;;;;;5072402;28;20995;-65
2021/11/24 13:41:13;;;;;;;74.40;14.20;;;;;;;;;;5072617;28;20456;-65
2021/11/24 13:43:44;;;;;;;68.70;11.67;;;;;;;;;;5071944;28;20465;-65
2021/11/24 13:46:13;;;;;;;70.37;11.73;;;;;;;;;;5072217;28;20951;-64
2021/11/24 13:48:40;;;;;;;72.13;13.07;;;;;;;;;;5072523;28;20448;-65
2021/11/24 13:51:08;;;;;;;72.33;12.77;;;;;;;;;;5072604;28;20447;-65
2021/11/24 13:53:37;;;;;;;75.27;14.10;;;;;;;;;;5072640;28;20454;-65
2021/11/24 13:56:08;;;;;;;72.07;13.20;;;;;;;;;;5071960;28;20451;-64
2021/11/24 13:58:35;;;;;;;71.57;12.93;;;;;;;;;;5072452;28;20490;-65
2021/11/24 14:01:12;;;;;;;73.67;13.20;;;;;;;;;;5072223;28;20451;-65
2021/11/24 14:03:39;;;;;;;74.47;14.10;;;;;;;;;;5072315;28;20454;-64
2021/11/24 14:06:07;;;;;;;73.37;12.37;;;;;;;;;;5072000;28;20454;-64
2021/11/24 14:08:40;;;;;;;72.57;12.10;;;;;;;;;;5072187;28;20954;-65
2021/11/24 14:11:26;;;;;;;70.20;12.30;;;;;;;;;;5071988;28;20459;-64
2021/11/24 14:13:53;;;;;;;74.97;13.80;;;;;;;;;;5072072;28;20469;-65
2021/11/24 14:16:28;;;;;;;73.70;12.50;;;;;;;;;;5071710;28;20453;-65
2021/11/24 14:19:10;;;;;;;69.93;12.60;;;;;;;;;;5072051;28;20982;-64
2021/11/24 14:21:48;;;;;;;72.43;12.70;;;;;;;;;;5071978;28;20466;-65
2021/11/24 14:24:15;;;;;;;72.53;12.57;;;;;;;;;;5071868;28;20444;-65
2021/11/24 14:26:42;;;;;;;69.90;11.60;;;;;;;;;;5070911;28;20694;-65